sensor_id;sensor_type;location;lat;lon;timestamp;P1;durP1;ratioP1;P2;durP2;ratioP2
17472;SDS011;8853;52.552;13.356;2022-08-01T00:02:28;3.47;;;2.50;;
17472;SDS011;8853;52.552;13.356;2022-08-01T00:04:57;3.67;;;2.70;;
17472;SDS011;8853;52.552;13.356;2022-08-01T00:07:25;2.87;;;2.58;;
17472;SDS011;8853;52.552;13.356;2022-08-01T00:09:54;3.35;;;2.60;;
17472;SDS011;8853;52.552;13.356;2022-08-01T00:12:23;3.00;;;2.27;;
17472;SDS011;8853;52.552;13.356;2022-08-01T00:14:51;3.12;;;2.50;;
17472;SDS011;8853;52.552;13.356;2022-08-01T00:17:20;3.12;;;2.60;;
17472;SDS011;8853;52.552;13.356;2022-08-01T00:19:49;4.00;;;2.70;;
17472;SDS011;8853;52.552;13.356;2022-08-01T00:22:18;3.00;;;2.25;;
17472;SDS011;8853;52.552;13.356;2022-08-01T00:24:46;4.10;;;2.45;;
17472;SDS011;8853;52.552;13.356;2022-08-01T00:27:15;3.02;;;2.58;;
17472;SDS011;8853;52.552;13.356;2022-08-01T00:29:44;4.47;;;2.60;;
17472;SDS011;8853;52.552;13.356;2022-08-01T00:32:12;3.42;;;2.50;;
17472;SDS011;8853;52.552;13.356;2022-08-01T00:34:41;3.62;;;2.52;;
17472;SDS011;8853;52.552;13.356;2022-08-01T00:37:10;4.40;;;2.42;;
17472;SDS011;8853;52.552;13.356;2022-08-01T00:39:38;3.58;;;2.60;;
17472;SDS011;8853;52.552;13.356;2022-08-01T00:42:07;4.15;;;2.60;;
17472;SDS011;8853;52.552;13.356;2022-08-01T00:44:35;3.98;;;2.50;;
17472;SDS011;8853;52.552;13.356;2022-08-01T00:47:04;2.90;;;2.22;;
17472;SDS011;8853;52.552;13.356;2022-08-01T00:49:33;3.70;;;2.30;;
17472;SDS011;8853;52.552;13.356;2022-08-01T00:52:02;3.45;;;2.20;;
17472;SDS011;8853;52.552;13.356;2022-08-01T00:54:30;3.30;;;2.45;;
17472;SDS011;8853;52.552;13.356;2022-08-01T00:56:59;2.40;;;2.20;;
17472;SDS011;8853;52.552;13.356;2022-08-01T00:59:28;3.52;;;2.40;;
17472;SDS011;8853;52.552;13.356;2022-08-01T01:01:57;2.95;;;2.37;;
17472;SDS011;8853;52.552;13.356;2022-08-01T01:04:25;2.98;;;2.33;;
17472;SDS011;8853;52.552;13.356;2022-08-01T01:07:01;3.35;;;2.35;;
17472;SDS011;8853;52.552;13.356;2022-08-01T01:15:10;2.65;;;2.45;;
17472;SDS011;8853;52.552;13.356;2022-08-01T01:17:44;3.05;;;2.47;;
17472;SDS011;8853;52.552;13.356;2022-08-01T01:20:41;2.45;;;2.25;;
17472;SDS011;8853;52.552;13.356;2022-08-01T01:23:17;3.35;;;2.70;;
17472;SDS011;8853;52.552;13.356;2022-08-01T01:29:09;3.90;;;2.55;;
17472;SDS011;8853;52.552;13.356;2022-08-01T01:31:40;2.77;;;2.25;;
17472;SDS011;8853;52.552;13.356;2022-08-01T01:34:11;2.87;;;2.15;;
17472;SDS011;8853;52.552;13.356;2022-08-01T01:36:39;2.47;;;2.27;;
17472;SDS011;8853;52.552;13.356;2022-08-01T01:39:08;2.37;;;2.05;;
17472;SDS011;8853;52.552;13.356;2022-08-01T01:41:37;2.37;;;2.12;;
17472;SDS011;8853;52.552;13.356;2022-08-01T01:44:05;5.08;;;2.37;;
17472;SDS011;8853;52.552;13.356;2022-08-01T01:46:34;3.92;;;2.50;;
17472;SDS011;8853;52.552;13.356;2022-08-01T01:49:03;3.12;;;2.30;;
17472;SDS011;8853;52.552;13.356;2022-08-01T01:51:31;4.25;;;2.42;;
17472;SDS011;8853;52.552;13.356;2022-08-01T01:54:00;3.33;;;2.10;;
17472;SDS011;8853;52.552;13.356;2022-08-01T01:56:29;5.22;;;2.30;;
17472;SDS011;8853;52.552;13.356;2022-08-01T01:58:58;3.15;;;2.50;;
17472;SDS011;8853;52.552;13.356;2022-08-01T02:01:28;2.95;;;2.40;;
17472;SDS011;8853;52.552;13.356;2022-08-01T02:03:56;2.20;;;2.00;;
17472;SDS011;8853;52.552;13.356;2022-08-01T02:06:24;3.75;;;2.33;;
17472;SDS011;8853;52.552;13.356;2022-08-01T02:08:54;3.72;;;2.60;;
17472;SDS011;8853;52.552;13.356;2022-08-01T02:11:31;3.25;;;2.30;;
17472;SDS011;8853;52.552;13.356;2022-08-01T02:14:01;3.42;;;2.08;;
17472;SDS011;8853;52.552;13.356;2022-08-01T02:16:33;3.05;;;2.33;;
17472;SDS011;8853;52.552;13.356;2022-08-01T02:19:00;3.42;;;2.40;;
17472;SDS011;8853;52.552;13.356;2022-08-01T02:21:37;3.52;;;2.45;;
17472;SDS011;8853;52.552;13.356;2022-08-01T02:24:07;2.90;;;2.60;;
17472;SDS011;8853;52.552;13.356;2022-08-01T02:26:32;2.90;;;2.20;;
17472;SDS011;8853;52.552;13.356;2022-08-01T02:29:02;3.33;;;2.52;;
17472;SDS011;8853;52.552;13.356;2022-08-01T02:31:30;3.22;;;2.12;;
17472;SDS011;8853;52.552;13.356;2022-08-01T02:34:09;3.55;;;2.50;;
17472;SDS011;8853;52.552;13.356;2022-08-01T02:36:33;2.45;;;2.12;;
17472;SDS011;8853;52.552;13.356;2022-08-01T02:39:03;2.90;;;2.50;;
17472;SDS011;8853;52.552;13.356;2022-08-01T02:41:30;3.90;;;2.52;;
17472;SDS011;8853;52.552;13.356;2022-08-01T02:43:59;4.42;;;2.50;;
17472;SDS011;8853;52.552;13.356;2022-08-01T02:46:34;2.67;;;2.33;;
17472;SDS011;8853;52.552;13.356;2022-08-01T02:49:02;2.58;;;2.30;;
17472;SDS011;8853;52.552;13.356;2022-08-01T02:51:30;2.77;;;2.45;;
17472;SDS011;8853;52.552;13.356;2022-08-01T02:53:59;2.62;;;2.17;;
17472;SDS011;8853;52.552;13.356;2022-08-01T03:01:13;4.37;;;2.47;;
17472;SDS011;8853;52.552;13.356;2022-08-01T03:03:40;4.15;;;2.55;;
17472;SDS011;8853;52.552;13.356;2022-08-01T03:06:09;2.67;;;2.25;;
17472;SDS011;8853;52.552;13.356;2022-08-01T03:08:38;3.08;;;2.60;;
17472;SDS011;8853;52.552;13.356;2022-08-01T03:11:06;4.42;;;2.77;;
17472;SDS011;8853;52.552;13.356;2022-08-01T03:13:35;3.85;;;2.58;;
17472;SDS011;8853;52.552;13.356;2022-08-01T03:16:04;3.45;;;2.35;;
17472;SDS011;8853;52.552;13.356;2022-08-01T03:18:32;4.90;;;2.70;;
17472;SDS011;8853;52.552;13.356;2022-08-01T03:21:01;2.85;;;2.42;;
17472;SDS011;8853;52.552;13.356;2022-08-01T03:23:30;3.40;;;2.33;;
17472;SDS011;8853;52.552;13.356;2022-08-01T03:25:58;4.28;;;2.40;;
17472;SDS011;8853;52.552;13.356;2022-08-01T03:28:27;4.00;;;2.70;;
17472;SDS011;8853;52.552;13.356;2022-08-01T03:30:56;2.67;;;2.40;;
17472;SDS011;8853;52.552;13.356;2022-08-01T03:33:24;3.02;;;2.35;;
17472;SDS011;8853;52.552;13.356;2022-08-01T03:35:53;2.83;;;2.60;;
17472;SDS011;8853;52.552;13.356;2022-08-01T03:38:23;3.55;;;2.72;;
17472;SDS011;8853;52.552;13.356;2022-08-01T03:40:53;2.87;;;2.30;;
17472;SDS011;8853;52.552;13.356;2022-08-01T03:43:22;3.50;;;2.75;;
17472;SDS011;8853;52.552;13.356;2022-08-01T03:45:56;3.33;;;2.90;;
17472;SDS011;8853;52.552;13.356;2022-08-01T03:48:27;3.10;;;2.80;;
17472;SDS011;8853;52.552;13.356;2022-08-01T03:50:54;3.37;;;2.70;;
17472;SDS011;8853;52.552;13.356;2022-08-01T03:53:24;3.60;;;2.47;;
17472;SDS011;8853;52.552;13.356;2022-08-01T03:55:51;5.42;;;2.90;;
17472;SDS011;8853;52.552;13.356;2022-08-01T03:58:20;4.08;;;2.67;;
17472;SDS011;8853;52.552;13.356;2022-08-01T04:00:48;4.87;;;3.02;;
17472;SDS011;8853;52.552;13.356;2022-08-01T04:03:17;3.27;;;2.50;;
17472;SDS011;8853;52.552;13.356;2022-08-01T04:05:46;4.72;;;2.92;;
17472;SDS011;8853;52.552;13.356;2022-08-01T04:08:14;3.10;;;2.70;;
17472;SDS011;8853;52.552;13.356;2022-08-01T04:10:43;3.83;;;2.90;;
17472;SDS011;8853;52.552;13.356;2022-08-01T04:13:12;5.12;;;2.72;;
17472;SDS011;8853;52.552;13.356;2022-08-01T04:15:40;8.00;;;3.30;;
17472;SDS011;8853;52.552;13.356;2022-08-01T04:18:09;5.85;;;3.70;;
17472;SDS011;8853;52.552;13.356;2022-08-01T04:20:37;7.33;;;3.22;;
17472;SDS011;8853;52.552;13.356;2022-08-01T04:23:06;5.08;;;3.00;;
17472;SDS011;8853;52.552;13.356;2022-08-01T04:25:35;6.37;;;2.60;;
17472;SDS011;8853;52.552;13.356;2022-08-01T04:28:03;7.92;;;2.80;;
17472;SDS011;8853;52.552;13.356;2022-08-01T04:30:33;5.47;;;3.00;;
17472;SDS011;8853;52.552;13.356;2022-08-01T04:33:02;3.52;;;2.58;;
17472;SDS011;8853;52.552;13.356;2022-08-01T04:35:30;4.10;;;2.65;;
17472;SDS011;8853;52.552;13.356;2022-08-01T04:37:59;3.85;;;2.50;;
17472;SDS011;8853;52.552;13.356;2022-08-01T04:40:28;4.12;;;2.50;;
17472;SDS011;8853;52.552;13.356;2022-08-01T04:42:56;3.50;;;2.52;;
17472;SDS011;8853;52.552;13.356;2022-08-01T04:45:25;2.67;;;2.40;;
17472;SDS011;8853;52.552;13.356;2022-08-01T04:47:53;3.83;;;2.60;;
17472;SDS011;8853;52.552;13.356;2022-08-01T04:50:22;6.17;;;2.70;;
17472;SDS011;8853;52.552;13.356;2022-08-01T04:52:51;3.85;;;2.70;;
17472;SDS011;8853;52.552;13.356;2022-08-01T04:55:19;4.65;;;2.37;;
17472;SDS011;8853;52.552;13.356;2022-08-01T04:57:48;4.47;;;2.47;;
17472;SDS011;8853;52.552;13.356;2022-08-01T05:00:16;3.40;;;2.65;;
17472;SDS011;8853;52.552;13.356;2022-08-01T05:02:45;2.77;;;2.58;;
17472;SDS011;8853;52.552;13.356;2022-08-01T05:05:14;4.40;;;2.40;;
17472;SDS011;8853;52.552;13.356;2022-08-01T05:07:42;2.92;;;2.25;;
17472;SDS011;8853;52.552;13.356;2022-08-01T05:10:11;2.90;;;2.60;;
17472;SDS011;8853;52.552;13.356;2022-08-01T05:12:40;4.30;;;2.30;;
17472;SDS011;8853;52.552;13.356;2022-08-01T05:15:09;2.90;;;2.30;;
17472;SDS011;8853;52.552;13.356;2022-08-01T05:17:38;3.45;;;2.33;;
17472;SDS011;8853;52.552;13.356;2022-08-01T05:20:07;3.17;;;2.55;;
17472;SDS011;8853;52.552;13.356;2022-08-01T05:22:35;3.80;;;2.50;;
17472;SDS011;8853;52.552;13.356;2022-08-01T05:25:04;3.10;;;2.60;;
17472;SDS011;8853;52.552;13.356;2022-08-01T05:27:33;2.83;;;2.50;;
17472;SDS011;8853;52.552;13.356;2022-08-01T05:30:06;3.85;;;2.62;;
17472;SDS011;8853;52.552;13.356;2022-08-01T05:32:36;4.50;;;2.37;;
17472;SDS011;8853;52.552;13.356;2022-08-01T05:35:05;2.50;;;2.30;;
17472;SDS011;8853;52.552;13.356;2022-08-01T05:37:34;2.72;;;2.27;;
17472;SDS011;8853;52.552;13.356;2022-08-01T05:40:03;2.83;;;2.52;;
17472;SDS011;8853;52.552;13.356;2022-08-01T05:42:32;4.60;;;2.90;;
17472;SDS011;8853;52.552;13.356;2022-08-01T05:45:01;3.22;;;2.47;;
17472;SDS011;8853;52.552;13.356;2022-08-01T05:47:29;2.85;;;2.42;;
17472;SDS011;8853;52.552;13.356;2022-08-01T05:49:58;2.75;;;2.30;;
17472;SDS011;8853;52.552;13.356;2022-08-01T05:52:27;2.70;;;2.30;;
17472;SDS011;8853;52.552;13.356;2022-08-01T05:54:55;2.70;;;2.40;;
17472;SDS011;8853;52.552;13.356;2022-08-01T05:57:24;4.30;;;2.58;;
17472;SDS011;8853;52.552;13.356;2022-08-01T05:59:53;4.17;;;2.55;;
17472;SDS011;8853;52.552;13.356;2022-08-01T06:02:22;3.62;;;2.45;;
17472;SDS011;8853;52.552;13.356;2022-08-01T06:04:51;2.85;;;2.30;;
17472;SDS011;8853;52.552;13.356;2022-08-01T06:07:19;5.15;;;2.45;;
17472;SDS011;8853;52.552;13.356;2022-08-01T06:09:48;4.10;;;2.50;;
17472;SDS011;8853;52.552;13.356;2022-08-01T06:12:16;5.45;;;2.37;;
17472;SDS011;8853;52.552;13.356;2022-08-01T06:14:45;2.62;;;2.30;;
17472;SDS011;8853;52.552;13.356;2022-08-01T06:17:14;3.37;;;2.30;;
17472;SDS011;8853;52.552;13.356;2022-08-01T06:19:43;3.62;;;2.60;;
17472;SDS011;8853;52.552;13.356;2022-08-01T06:22:12;4.58;;;2.62;;
17472;SDS011;8853;52.552;13.356;2022-08-01T06:24:40;5.20;;;2.40;;
17472;SDS011;8853;52.552;13.356;2022-08-01T06:27:09;2.72;;;2.52;;
17472;SDS011;8853;52.552;13.356;2022-08-01T06:29:38;2.75;;;2.30;;
17472;SDS011;8853;52.552;13.356;2022-08-01T06:32:06;2.77;;;2.40;;
17472;SDS011;8853;52.552;13.356;2022-08-01T06:34:35;2.80;;;2.42;;
17472;SDS011;8853;52.552;13.356;2022-08-01T06:37:03;5.85;;;2.83;;
17472;SDS011;8853;52.552;13.356;2022-08-01T06:39:32;3.70;;;2.45;;
17472;SDS011;8853;52.552;13.356;2022-08-01T06:42:01;3.35;;;2.58;;
17472;SDS011;8853;52.552;13.356;2022-08-01T06:44:29;2.77;;;2.27;;
17472;SDS011;8853;52.552;13.356;2022-08-01T06:46:58;3.12;;;2.40;;
17472;SDS011;8853;52.552;13.356;2022-08-01T06:49:27;3.42;;;2.20;;
17472;SDS011;8853;52.552;13.356;2022-08-01T06:51:55;4.58;;;2.60;;
17472;SDS011;8853;52.552;13.356;2022-08-01T06:54:24;3.02;;;2.30;;
17472;SDS011;8853;52.552;13.356;2022-08-01T06:56:52;2.20;;;2.00;;
17472;SDS011;8853;52.552;13.356;2022-08-01T06:59:21;2.75;;;2.22;;
17472;SDS011;8853;52.552;13.356;2022-08-01T07:01:50;3.00;;;2.35;;
17472;SDS011;8853;52.552;13.356;2022-08-01T07:04:18;2.95;;;2.30;;
17472;SDS011;8853;52.552;13.356;2022-08-01T07:06:47;3.80;;;2.42;;
17472;SDS011;8853;52.552;13.356;2022-08-01T07:09:15;3.15;;;2.50;;
17472;SDS011;8853;52.552;13.356;2022-08-01T07:11:44;2.95;;;2.30;;
17472;SDS011;8853;52.552;13.356;2022-08-01T07:14:13;3.45;;;2.65;;
17472;SDS011;8853;52.552;13.356;2022-08-01T07:16:41;3.05;;;2.20;;
17472;SDS011;8853;52.552;13.356;2022-08-01T07:19:10;2.80;;;2.10;;
17472;SDS011;8853;52.552;13.356;2022-08-01T07:21:39;2.77;;;2.35;;
17472;SDS011;8853;52.552;13.356;2022-08-01T07:24:08;2.40;;;2.20;;
17472;SDS011;8853;52.552;13.356;2022-08-01T07:26:37;3.47;;;2.30;;
17472;SDS011;8853;52.552;13.356;2022-08-01T07:29:05;2.50;;;2.00;;
17472;SDS011;8853;52.552;13.356;2022-08-01T07:31:34;2.72;;;2.30;;
17472;SDS011;8853;52.552;13.356;2022-08-01T07:34:03;2.30;;;2.10;;
17472;SDS011;8853;52.552;13.356;2022-08-01T07:36:31;2.37;;;2.17;;
17472;SDS011;8853;52.552;13.356;2022-08-01T07:39:00;2.33;;;2.00;;
17472;SDS011;8853;52.552;13.356;2022-08-01T07:41:29;3.87;;;2.10;;
17472;SDS011;8853;52.552;13.356;2022-08-01T07:43:58;2.35;;;2.12;;
17472;SDS011;8853;52.552;13.356;2022-08-01T07:46:27;1.95;;;1.80;;
17472;SDS011;8853;52.552;13.356;2022-08-01T07:48:57;2.30;;;2.10;;
17472;SDS011;8853;52.552;13.356;2022-08-01T07:51:26;3.50;;;2.10;;
17472;SDS011;8853;52.552;13.356;2022-08-01T07:53:54;2.40;;;1.90;;
17472;SDS011;8853;52.552;13.356;2022-08-01T07:56:23;1.80;;;1.70;;
17472;SDS011;8853;52.552;13.356;2022-08-01T07:58:52;2.45;;;2.17;;
17472;SDS011;8853;52.552;13.356;2022-08-01T08:01:20;4.33;;;2.33;;
17472;SDS011;8853;52.552;13.356;2022-08-01T08:03:49;2.55;;;2.17;;
17472;SDS011;8853;52.552;13.356;2022-08-01T08:06:17;3.00;;;2.15;;
17472;SDS011;8853;52.552;13.356;2022-08-01T08:08:46;2.30;;;2.10;;
17472;SDS011;8853;52.552;13.356;2022-08-01T08:11:15;2.42;;;1.92;;
17472;SDS011;8853;52.552;13.356;2022-08-01T08:13:43;2.52;;;1.98;;
17472;SDS011;8853;52.552;13.356;2022-08-01T08:16:12;2.33;;;2.12;;
17472;SDS011;8853;52.552;13.356;2022-08-01T08:18:41;3.47;;;2.10;;
17472;SDS011;8853;52.552;13.356;2022-08-01T08:21:09;2.10;;;1.90;;
17472;SDS011;8853;52.552;13.356;2022-08-01T08:23:38;2.80;;;2.08;;
17472;SDS011;8853;52.552;13.356;2022-08-01T08:26:26;2.37;;;2.00;;
17472;SDS011;8853;52.552;13.356;2022-08-01T08:28:54;2.35;;;1.90;;
17472;SDS011;8853;52.552;13.356;2022-08-01T08:31:23;2.12;;;1.90;;
17472;SDS011;8853;52.552;13.356;2022-08-01T08:33:52;2.20;;;1.77;;
17472;SDS011;8853;52.552;13.356;2022-08-01T08:36:21;2.02;;;1.90;;
17472;SDS011;8853;52.552;13.356;2022-08-01T08:38:50;2.62;;;2.25;;
17472;SDS011;8853;52.552;13.356;2022-08-01T08:41:18;3.08;;;2.05;;
17472;SDS011;8853;52.552;13.356;2022-08-01T08:43:47;1.80;;;1.70;;
17472;SDS011;8853;52.552;13.356;2022-08-01T08:46:16;2.15;;;1.95;;
17472;SDS011;8853;52.552;13.356;2022-08-01T08:48:44;2.15;;;1.95;;
17472;SDS011;8853;52.552;13.356;2022-08-01T08:51:13;2.20;;;2.00;;
17472;SDS011;8853;52.552;13.356;2022-08-01T08:53:41;3.70;;;1.75;;
17472;SDS011;8853;52.552;13.356;2022-08-01T08:56:11;2.08;;;1.87;;
17472;SDS011;8853;52.552;13.356;2022-08-01T08:58:44;1.90;;;1.75;;
17472;SDS011;8853;52.552;13.356;2022-08-01T09:01:14;2.08;;;1.87;;
17472;SDS011;8853;52.552;13.356;2022-08-01T09:03:43;2.52;;;2.22;;
17472;SDS011;8853;52.552;13.356;2022-08-01T09:06:12;2.08;;;1.90;;
17472;SDS011;8853;52.552;13.356;2022-08-01T09:08:40;2.10;;;1.90;;
17472;SDS011;8853;52.552;13.356;2022-08-01T09:11:09;1.90;;;1.80;;
17472;SDS011;8853;52.552;13.356;2022-08-01T09:13:38;2.40;;;1.95;;
17472;SDS011;8853;52.552;13.356;2022-08-01T09:16:07;2.98;;;2.00;;
17472;SDS011;8853;52.552;13.356;2022-08-01T09:18:39;1.70;;;1.60;;
17472;SDS011;8853;52.552;13.356;2022-08-01T09:21:15;3.70;;;2.02;;
17472;SDS011;8853;52.552;13.356;2022-08-01T09:23:43;1.92;;;1.60;;
17472;SDS011;8853;52.552;13.356;2022-08-01T09:26:14;2.10;;;1.90;;
17472;SDS011;8853;52.552;13.356;2022-08-01T09:28:45;1.80;;;1.70;;
17472;SDS011;8853;52.552;13.356;2022-08-01T09:31:15;1.87;;;1.67;;
17472;SDS011;8853;52.552;13.356;2022-08-01T09:33:46;2.00;;;1.85;;
17472;SDS011;8853;52.552;13.356;2022-08-01T09:36:18;2.72;;;2.10;;
17472;SDS011;8853;52.552;13.356;2022-08-01T09:38:47;2.17;;;1.90;;
17472;SDS011;8853;52.552;13.356;2022-08-01T09:41:15;2.00;;;1.72;;
17472;SDS011;8853;52.552;13.356;2022-08-01T09:43:50;2.10;;;1.90;;
17472;SDS011;8853;52.552;13.356;2022-08-01T09:46:18;1.70;;;1.60;;
17472;SDS011;8853;52.552;13.356;2022-08-01T09:48:57;2.55;;;2.05;;
17472;SDS011;8853;52.552;13.356;2022-08-01T09:51:37;2.02;;;1.77;;
17472;SDS011;8853;52.552;13.356;2022-08-01T09:54:06;1.87;;;1.70;;
17472;SDS011;8853;52.552;13.356;2022-08-01T09:56:38;1.80;;;1.70;;
17472;SDS011;8853;52.552;13.356;2022-08-01T09:59:05;1.85;;;1.57;;
17472;SDS011;8853;52.552;13.356;2022-08-01T10:01:49;1.72;;;1.62;;
17472;SDS011;8853;52.552;13.356;2022-08-01T10:04:19;2.00;;;1.80;;
17472;SDS011;8853;52.552;13.356;2022-08-01T10:06:46;1.80;;;1.70;;
17472;SDS011;8853;52.552;13.356;2022-08-01T10:09:13;2.08;;;1.70;;
17472;SDS011;8853;52.552;13.356;2022-08-01T10:11:42;2.00;;;1.72;;
17472;SDS011;8853;52.552;13.356;2022-08-01T10:14:10;1.95;;;1.70;;
17472;SDS011;8853;52.552;13.356;2022-08-01T10:16:40;1.92;;;1.70;;
17472;SDS011;8853;52.552;13.356;2022-08-01T10:19:09;2.12;;;1.65;;
17472;SDS011;8853;52.552;13.356;2022-08-01T10:21:38;2.35;;;1.70;;
17472;SDS011;8853;52.552;13.356;2022-08-01T10:24:06;2.02;;;1.90;;
17472;SDS011;8853;52.552;13.356;2022-08-01T10:26:35;2.33;;;1.90;;
17472;SDS011;8853;52.552;13.356;2022-08-01T10:29:04;2.42;;;1.90;;
17472;SDS011;8853;52.552;13.356;2022-08-01T10:31:32;1.90;;;1.75;;
17472;SDS011;8853;52.552;13.356;2022-08-01T10:34:01;2.17;;;1.80;;
17472;SDS011;8853;52.552;13.356;2022-08-01T10:36:29;1.80;;;1.70;;
17472;SDS011;8853;52.552;13.356;2022-08-01T10:38:58;2.05;;;1.80;;
17472;SDS011;8853;52.552;13.356;2022-08-01T10:41:27;1.80;;;1.70;;
17472;SDS011;8853;52.552;13.356;2022-08-01T10:43:55;2.52;;;1.98;;
17472;SDS011;8853;52.552;13.356;2022-08-01T10:46:24;3.12;;;1.90;;
17472;SDS011;8853;52.552;13.356;2022-08-01T10:48:55;2.20;;;1.80;;
17472;SDS011;8853;52.552;13.356;2022-08-01T10:51:25;2.25;;;2.05;;
17472;SDS011;8853;52.552;13.356;2022-08-01T10:53:53;2.10;;;1.90;;
17472;SDS011;8853;52.552;13.356;2022-08-01T10:56:22;2.80;;;2.10;;
17472;SDS011;8853;52.552;13.356;2022-08-01T10:58:51;1.75;;;1.65;;
17472;SDS011;8853;52.552;13.356;2022-08-01T11:09:02;2.10;;;1.90;;
17472;SDS011;8853;52.552;13.356;2022-08-01T11:11:30;2.15;;;1.92;;
17472;SDS011;8853;52.552;13.356;2022-08-01T11:16:28;2.25;;;2.00;;
17472;SDS011;8853;52.552;13.356;2022-08-01T11:18:56;2.27;;;2.08;;
17472;SDS011;8853;52.552;13.356;2022-08-01T11:27:16;2.10;;;1.70;;
17472;SDS011;8853;52.552;13.356;2022-08-01T11:32:45;2.00;;;1.80;;
17472;SDS011;8853;52.552;13.356;2022-08-01T11:35:15;2.20;;;2.00;;
17472;SDS011;8853;52.552;13.356;2022-08-01T11:37:44;1.70;;;1.60;;
17472;SDS011;8853;52.552;13.356;2022-08-01T11:40:20;1.90;;;1.70;;
17472;SDS011;8853;52.552;13.356;2022-08-01T11:45:51;2.10;;;1.80;;
17472;SDS011;8853;52.552;13.356;2022-08-01T11:48:25;1.70;;;1.60;;
17472;SDS011;8853;52.552;13.356;2022-08-01T11:50:54;2.12;;;1.85;;
17472;SDS011;8853;52.552;13.356;2022-08-01T11:53:22;2.20;;;2.00;;
17472;SDS011;8853;52.552;13.356;2022-08-01T11:55:53;1.67;;;1.57;;
17472;SDS011;8853;52.552;13.356;2022-08-01T11:58:22;2.00;;;1.77;;
17472;SDS011;8853;52.552;13.356;2022-08-01T12:00:53;1.77;;;1.60;;
17472;SDS011;8853;52.552;13.356;2022-08-01T12:03:25;2.10;;;1.90;;
17472;SDS011;8853;52.552;13.356;2022-08-01T12:05:56;2.10;;;1.90;;
17472;SDS011;8853;52.552;13.356;2022-08-01T12:10:53;2.10;;;1.90;;
17472;SDS011;8853;52.552;13.356;2022-08-01T12:13:22;1.87;;;1.70;;
17472;SDS011;8853;52.552;13.356;2022-08-01T12:15:51;2.30;;;2.05;;
17472;SDS011;8853;52.552;13.356;2022-08-01T12:18:19;1.98;;;1.80;;
17472;SDS011;8853;52.552;13.356;2022-08-01T12:20:48;1.90;;;1.80;;
17472;SDS011;8853;52.552;13.356;2022-08-01T12:23:17;1.77;;;1.67;;
17472;SDS011;8853;52.552;13.356;2022-08-01T12:25:50;2.35;;;1.92;;
17472;SDS011;8853;52.552;13.356;2022-08-01T12:28:14;1.87;;;1.62;;
17472;SDS011;8853;52.552;13.356;2022-08-01T12:30:42;2.20;;;1.80;;
17472;SDS011;8853;52.552;13.356;2022-08-01T12:33:16;2.15;;;1.60;;
17472;SDS011;8853;52.552;13.356;2022-08-01T12:35:41;2.00;;;1.80;;
17472;SDS011;8853;52.552;13.356;2022-08-01T12:38:14;2.22;;;1.85;;
17472;SDS011;8853;52.552;13.356;2022-08-01T12:40:46;2.10;;;1.90;;
17472;SDS011;8853;52.552;13.356;2022-08-01T12:43:17;2.42;;;2.02;;
17472;SDS011;8853;52.552;13.356;2022-08-01T12:45:46;1.98;;;1.87;;
17472;SDS011;8853;52.552;13.356;2022-08-01T12:48:16;2.17;;;1.70;;
17472;SDS011;8853;52.552;13.356;2022-08-01T12:50:44;1.95;;;1.72;;
17472;SDS011;8853;52.552;13.356;2022-08-01T12:53:12;2.00;;;1.80;;
17472;SDS011;8853;52.552;13.356;2022-08-01T12:55:59;1.55;;;1.45;;
17472;SDS011;8853;52.552;13.356;2022-08-01T12:58:16;2.10;;;1.90;;
17472;SDS011;8853;52.552;13.356;2022-08-01T13:00:45;2.12;;;1.90;;
17472;SDS011;8853;52.552;13.356;2022-08-01T13:03:14;2.10;;;1.90;;
17472;SDS011;8853;52.552;13.356;2022-08-01T13:10:45;3.10;;;2.02;;
17472;SDS011;8853;52.552;13.356;2022-08-01T13:13:14;2.22;;;1.90;;
17472;SDS011;8853;52.552;13.356;2022-08-01T13:15:42;1.77;;;1.67;;
17472;SDS011;8853;52.552;13.356;2022-08-01T13:18:25;1.90;;;1.70;;
17472;SDS011;8853;52.552;13.356;2022-08-01T13:26:43;2.00;;;1.70;;
17472;SDS011;8853;52.552;13.356;2022-08-01T13:29:19;1.57;;;1.45;;
17472;SDS011;8853;52.552;13.356;2022-08-01T13:31:49;2.00;;;1.80;;
17472;SDS011;8853;52.552;13.356;2022-08-01T13:34:18;2.05;;;1.80;;
17472;SDS011;8853;52.552;13.356;2022-08-01T13:36:46;1.70;;;1.50;;
17472;SDS011;8853;52.552;13.356;2022-08-01T13:39:15;2.17;;;1.98;;
17472;SDS011;8853;52.552;13.356;2022-08-01T13:42:02;2.27;;;1.90;;
17472;SDS011;8853;52.552;13.356;2022-08-01T13:44:31;2.00;;;1.80;;
17472;SDS011;8853;52.552;13.356;2022-08-01T13:47:00;1.92;;;1.82;;
17472;SDS011;8853;52.552;13.356;2022-08-01T13:49:28;1.77;;;1.50;;
17472;SDS011;8853;52.552;13.356;2022-08-01T13:51:57;1.67;;;1.57;;
17472;SDS011;8853;52.552;13.356;2022-08-01T13:54:26;1.92;;;1.70;;
17472;SDS011;8853;52.552;13.356;2022-08-01T13:56:54;1.70;;;1.60;;
17472;SDS011;8853;52.552;13.356;2022-08-01T13:59:23;2.10;;;1.90;;
17472;SDS011;8853;52.552;13.356;2022-08-01T14:01:51;1.70;;;1.60;;
17472;SDS011;8853;52.552;13.356;2022-08-01T14:04:20;1.67;;;1.57;;
17472;SDS011;8853;52.552;13.356;2022-08-01T14:06:49;4.40;;;1.85;;
17472;SDS011;8853;52.552;13.356;2022-08-01T14:09:18;1.65;;;1.42;;
17472;SDS011;8853;52.552;13.356;2022-08-01T14:11:46;3.12;;;1.35;;
17472;SDS011;8853;52.552;13.356;2022-08-01T14:14:15;1.87;;;1.20;;
17472;SDS011;8853;52.552;13.356;2022-08-01T14:16:44;1.85;;;0.95;;
17472;SDS011;8853;52.552;13.356;2022-08-01T14:19:12;2.35;;;1.10;;
17472;SDS011;8853;52.552;13.356;2022-08-01T14:21:41;1.70;;;0.95;;
17472;SDS011;8853;52.552;13.356;2022-08-01T14:24:10;1.15;;;0.80;;
17472;SDS011;8853;52.552;13.356;2022-08-01T14:26:38;4.78;;;0.80;;
17472;SDS011;8853;52.552;13.356;2022-08-01T14:29:07;1.22;;;1.00;;
17472;SDS011;8853;52.552;13.356;2022-08-01T14:31:36;1.02;;;0.90;;
17472;SDS011;8853;52.552;13.356;2022-08-01T14:34:06;0.70;;;0.70;;
17472;SDS011;8853;52.552;13.356;2022-08-01T14:36:34;2.35;;;0.90;;
17472;SDS011;8853;52.552;13.356;2022-08-01T14:39:03;2.00;;;0.72;;
17472;SDS011;8853;52.552;13.356;2022-08-01T14:41:31;2.77;;;1.00;;
17472;SDS011;8853;52.552;13.356;2022-08-01T14:44:00;2.35;;;0.70;;
17472;SDS011;8853;52.552;13.356;2022-08-01T14:46:29;1.22;;;1.05;;
17472;SDS011;8853;52.552;13.356;2022-08-01T14:48:57;1.90;;;1.00;;
17472;SDS011;8853;52.552;13.356;2022-08-01T14:51:26;2.40;;;0.68;;
17472;SDS011;8853;52.552;13.356;2022-08-01T14:53:55;1.00;;;1.00;;
17472;SDS011;8853;52.552;13.356;2022-08-01T14:56:23;3.42;;;0.88;;
17472;SDS011;8853;52.552;13.356;2022-08-01T14:58:52;3.15;;;1.07;;
17472;SDS011;8853;52.552;13.356;2022-08-01T15:01:20;3.17;;;1.20;;
17472;SDS011;8853;52.552;13.356;2022-08-01T15:03:49;4.58;;;0.95;;
17472;SDS011;8853;52.552;13.356;2022-08-01T15:06:18;4.67;;;1.10;;
17472;SDS011;8853;52.552;13.356;2022-08-01T15:08:46;1.00;;;1.00;;
17472;SDS011;8853;52.552;13.356;2022-08-01T15:11:15;2.83;;;1.20;;
17472;SDS011;8853;52.552;13.356;2022-08-01T15:13:44;2.10;;;1.02;;
17472;SDS011;8853;52.552;13.356;2022-08-01T15:16:12;1.27;;;1.17;;
17472;SDS011;8853;52.552;13.356;2022-08-01T15:18:43;1.77;;;1.12;;
17472;SDS011;8853;52.552;13.356;2022-08-01T15:21:20;0.90;;;0.90;;
17472;SDS011;8853;52.552;13.356;2022-08-01T15:23:48;1.02;;;0.88;;
17472;SDS011;8853;52.552;13.356;2022-08-01T15:26:17;1.40;;;0.93;;
17472;SDS011;8853;52.552;13.356;2022-08-01T15:28:46;3.37;;;1.00;;
17472;SDS011;8853;52.552;13.356;2022-08-01T15:31:14;4.62;;;0.95;;
17472;SDS011;8853;52.552;13.356;2022-08-01T15:33:43;2.08;;;1.00;;
17472;SDS011;8853;52.552;13.356;2022-08-01T15:36:11;1.22;;;1.00;;
17472;SDS011;8853;52.552;13.356;2022-08-01T15:38:40;1.70;;;0.90;;
17472;SDS011;8853;52.552;13.356;2022-08-01T15:41:09;2.05;;;0.88;;
17472;SDS011;8853;52.552;13.356;2022-08-01T15:43:38;2.30;;;1.07;;
17472;SDS011;8853;52.552;13.356;2022-08-01T15:46:07;0.72;;;0.72;;
17472;SDS011;8853;52.552;13.356;2022-08-01T15:48:36;2.60;;;0.75;;
17472;SDS011;8853;52.552;13.356;2022-08-01T15:51:04;1.00;;;0.90;;